Asbury, Missouri
Current Conditions -  °F | °C
As of 9:53 PM on Friday 19 Dec 2014 (Local Time) from KJLN Reporting Station
Moderate Fog Moderate Fog  
Wind Chill: 39°   Ceiling: 200
Heat Index: 39°   Visibility: 0.25mi
Dew Point: 38°   Wind: 3mph
Humidity: 96%   Direction: 300°WNW
Pressure: 30.21"   Gusts: NA
Location:  37.27°N, 94.61°W
Report Text: KJLN 200353Z AUTO 30003KT 1/4SM FG VV002 04/03 A3021 RMK AO2 SLP234 T00390033
Loading
Personal Weather Stations






























Interactive Weather Map New forecast layout! Learn more

10-Day Weather Forecast

Advertisements
Track Severe Weather on mobile